Time;durP1;ratioP1;P1;durP2;ratioP2;P2;SDS_P1;SDS_P2;PMS_P1;PMS_P2;Temp;Humidity;BMP_temperature;BMP_pressure;BME280_temperature;BME280_humidity;BME280_pressure;Samples;Min_cycle;Max_cycle;Signal;HPM_P1;HPM_P2
2023/05/19 04:56:42;;;;;;;;;;;16.00;74.70;;;;;;5330274;23;19942;-96
2023/05/19 04:59:33;;;;;;;;;;;16.00;74.60;;;;;;4963351;28;19966;-96
2023/05/19 05:02:11;;;;;;;;;;;16.10;74.50;;;;;;4957475;29;19903;-96
2023/05/19 06:01:53;;;;;;;;;;;16.60;72.50;;;;;;5103442;23;20391;-96
2023/05/19 06:04:19;;;;;;;;;;;16.60;72.60;;;;;;5316461;23;19926;-95
2023/05/19 06:48:22;;;;;;;;;;;17.20;72.00;;;;;;5420863;23;19910;-96
2023/05/19 06:56:59;;;;;;;;;;;17.30;70.80;;;;;;5736139;23;19918;-96
2023/05/19 07:10:44;;;;;;;;;;;17.70;69.60;;;;;;5159892;23;19910;-96
2023/05/19 07:13:19;;;;;;;;;;;17.80;69.20;;;;;;4944877;29;19945;-96
2023/05/19 07:15:47;;;;;;;;;;;17.80;69.60;;;;;;4944825;29;19895;-96
2023/05/19 07:18:18;;;;;;;;;;;17.90;69.60;;;;;;4960965;28;19926;-96
2023/05/19 07:21:01;;;;;;;;;;;18.00;68.90;;;;;;4944216;29;19918;-96
2023/05/19 07:23:35;;;;;;;;;;;18.00;68.50;;;;;;4945209;29;19915;-96
2023/05/19 07:26:13;;;;;;;;;;;18.10;67.90;;;;;;4960618;28;19927;-96
2023/05/19 07:28:42;;;;;;;;;;;18.10;68.30;;;;;;4943605;28;19895;-96
2023/05/19 07:31:26;;;;;;;;;;;18.20;68.20;;;;;;4944929;29;19918;-96
2023/05/19 07:46:52;;;;;;;;;;;18.20;67.80;;;;;;5020109;23;19934;-96
2023/05/19 07:49:28;;;;;;;;;;;18.20;68.30;;;;;;4980877;28;19942;-96
2023/05/19 07:52:17;;;;;;;;;;;18.30;67.70;;;;;;4980082;28;19922;-97
2023/05/19 07:54:53;;;;;;;;;;;18.40;67.30;;;;;;4963813;29;19895;-96
2023/05/19 16:25:37;;;;;;;;;;;18.60;71.90;;;;;;5398088;23;20019;-96
2023/05/19 16:28:11;;;;;;;;;;;18.60;74.10;;;;;;4960652;28;19926;-96
2023/05/19 16:30:54;;;;;;;;;;;18.50;74.20;;;;;;4980032;29;19930;-96
2023/05/19 16:33:26;;;;;;;;;;;18.40;75.00;;;;;;4968464;29;19910;-96
2023/05/19 16:36:02;;;;;;;;;;;18.40;74.20;;;;;;4976628;29;19918;-96
2023/05/19 16:38:37;;;;;;;;;;;18.40;73.70;;;;;;4962471;29;19954;-96
2023/05/19 16:41:09;;;;;;;;;;;18.30;72.90;;;;;;4931452;29;20355;-96
2023/05/19 16:43:42;;;;;;;;;;;18.30;72.60;;;;;;4957725;29;19921;-96
2023/05/19 16:46:13;;;;;;;;;;;18.30;72.80;;;;;;4943516;29;19910;-96
2023/05/19 16:48:51;;;;;;;;;;;18.20;73.70;;;;;;4944027;29;19935;-96
2023/05/19 16:51:34;;;;;;;;;;;18.30;74.30;;;;;;4960257;29;19899;-96
2023/05/19 16:54:05;;;;;;;;;;;18.20;74.40;;;;;;4957724;28;19903;-96
2023/05/19 16:56:43;;;;;;;;;;;18.10;74.70;;;;;;4956863;28;19926;-96
2023/05/19 16:59:18;;;;;;;;;;;18.00;75.40;;;;;;4943015;28;19899;-96
2023/05/19 17:01:58;;;;;;;;;;;17.80;76.60;;;;;;4959580;29;19895;-96
2023/05/19 17:04:29;;;;;;;;;;;17.80;77.00;;;;;;4929177;29;19914;-96
2023/05/19 17:07:02;;;;;;;;;;;17.70;77.20;;;;;;4960164;28;19918;-96
2023/05/19 17:09:52;;;;;;;;;;;17.60;77.40;;;;;;4943605;29;19923;-96
2023/05/19 17:12:23;;;;;;;;;;;17.70;76.50;;;;;;4943957;29;19935;-96
2023/05/19 17:14:52;;;;;;;;;;;17.60;75.10;;;;;;4942998;29;19911;-96
2023/05/19 17:17:29;;;;;;;;;;;17.50;76.00;;;;;;4943219;29;19894;-96
2023/05/19 17:19:58;;;;;;;;;;;17.50;76.20;;;;;;4944953;29;19919;-96
2023/05/19 17:22:43;;;;;;;;;;;17.40;76.60;;;;;;4943645;29;19902;-96
2023/05/19 17:25:17;;;;;;;;;;;17.40;77.50;;;;;;4959394;28;19903;-96
2023/05/19 17:28:14;;;;;;;;;;;17.40;77.80;;;;;;4943150;29;19907;-96
2023/05/19 17:30:51;;;;;;;;;;;17.40;77.90;;;;;;4942948;29;19903;-96
2023/05/19 17:46:44;;;;;;;;;;;17.20;79.40;;;;;;5954060;23;19917;-96
2023/05/19 17:49:21;;;;;;;;;;;17.20;79.40;;;;;;4940508;29;19918;-96
2023/05/19 17:51:51;;;;;;;;;;;17.10;79.70;;;;;;4942000;28;19983;-96
2023/05/19 17:54:28;;;;;;;;;;;17.10;79.90;;;;;;4944314;29;19918;-96
2023/05/19 19:56:09;;;;;;;;;;;16.90;85.60;;;;;;5276790;23;19950;-96
2023/05/19 19:58:55;;;;;;;;;;;16.90;86.40;;;;;;4941465;28;19911;-97
2023/05/19 20:01:42;;;;;;;;;;;16.80;87.00;;;;;;4957314;28;19962;-97
2023/05/19 20:04:35;;;;;;;;;;;16.80;87.40;;;;;;4960281;28;19939;-96
2023/05/19 20:07:17;;;;;;;;;;;16.70;87.30;;;;;;4912401;29;19911;-97
2023/05/19 20:17:55;;;;;;;;;;;16.70;87.70;;;;;;5186723;23;19912;-96
2023/05/19 20:34:30;;;;;;;;;;;16.80;82.00;;;;;;5070677;23;19934;-96
2023/05/19 20:47:50;;;;;;;;;;;17.00;80.20;;;;;;5334605;23;19911;-96
2023/05/19 22:14:45;;;;;;;;;;;17.10;73.70;;;;;;5267639;23;19934;-96
2023/05/19 22:17:22;;;;;;;;;;;17.10;73.60;;;;;;4976209;28;20378;-96
2023/05/19 22:20:10;;;;;;;;;;;17.10;73.70;;;;;;4966201;28;19916;-96
2023/05/19 22:23:00;;;;;;;;;;;17.10;73.30;;;;;;4982353;28;19902;-96
2023/05/19 22:25:29;;;;;;;;;;;17.10;73.00;;;;;;4965542;29;19923;-96
2023/05/19 22:28:06;;;;;;;;;;;17.20;72.90;;;;;;4961918;29;20508;-96
2023/05/19 22:30:46;;;;;;;;;;;17.10;73.20;;;;;;4962347;29;19898;-96
2023/05/19 22:33:20;;;;;;;;;;;17.20;72.70;;;;;;4947049;29;19908;-96
2023/05/19 22:35:54;;;;;;;;;;;17.20;72.70;;;;;;4961038;29;19974;-96
2023/05/19 22:38:24;;;;;;;;;;;17.20;72.80;;;;;;4964879;29;19918;-96
2023/05/19 22:40:56;;;;;;;;;;;17.20;72.70;;;;;;4981476;28;19938;-96
2023/05/19 22:43:30;;;;;;;;;;;17.20;72.40;;;;;;4976224;28;19911;-96
2023/05/19 22:46:02;;;;;;;;;;;17.10;72.70;;;;;;4945573;29;19915;-96
2023/05/19 22:48:46;;;;;;;;;;;17.10;72.50;;;;;;4960637;28;19915;-96
2023/05/19 22:51:23;;;;;;;;;;;17.10;72.80;;;;;;4959331;29;19921;-96
2023/05/19 22:54:11;;;;;;;;;;;17.00;73.00;;;;;;4963012;28;19919;-97
2023/05/19 22:57:08;;;;;;;;;;;16.90;73.40;;;;;;4960752;29;20272;-96
2023/05/19 22:59:45;;;;;;;;;;;16.90;73.00;;;;;;4962388;29;19922;-96
2023/05/19 23:02:31;;;;;;;;;;;16.90;73.80;;;;;;4946294;29;19939;-96
2023/05/19 23:05:10;;;;;;;;;;;16.90;73.60;;;;;;4960764;28;19915;-96
2023/05/19 23:07:51;;;;;;;;;;;16.80;73.90;;;;;;4962567;29;19915;-96
2023/05/19 23:10:20;;;;;;;;;;;16.80;74.30;;;;;;4936349;29;19899;-96
2023/05/19 23:12:53;;;;;;;;;;;16.80;74.00;;;;;;4945906;29;19925;-96
2023/05/19 23:15:33;;;;;;;;;;;16.80;74.20;;;;;;4961838;29;19958;-96
2023/05/19 23:18:07;;;;;;;;;;;16.80;74.20;;;;;;4946010;29;19903;-96
2023/05/19 23:20:41;;;;;;;;;;;16.80;74.40;;;;;;4945969;29;19915;-96
2023/05/19 23:23:14;;;;;;;;;;;16.80;74.30;;;;;;4938428;29;19899;-96
2023/05/19 23:25:45;;;;;;;;;;;16.80;74.10;;;;;;4944077;29;20013;-96
2023/05/19 23:28:29;;;;;;;;;;;16.80;74.20;;;;;;4945279;29;19962;-96
2023/05/19 23:31:04;;;;;;;;;;;16.80;74.40;;;;;;4931185;29;19947;-96
2023/05/19 23:38:52;;;;;;;;;;;16.80;74.30;;;;;;4959905;28;19911;-96
2023/05/19 23:41:28;;;;;;;;;;;16.80;74.20;;;;;;4945483;28;19982;-96
2023/05/19 23:43:57;;;;;;;;;;;16.80;74.30;;;;;;4945139;29;19899;-96
2023/05/19 23:46:36;;;;;;;;;;;16.80;74.20;;;;;;4942900;29;19911;-96
2023/05/19 23:49:11;;;;;;;;;;;16.80;74.10;;;;;;4945987;29;19911;-96
2023/05/19 23:51:48;;;;;;;;;;;16.80;73.90;;;;;;4959790;29;19902;-96
2023/05/19 23:54:25;;;;;;;;;;;16.80;73.80;;;;;;4961004;29;19915;-96
2023/05/19 23:57:07;;;;;;;;;;;16.90;73.80;;;;;;4961244;28;19919;-96
2023/05/19 23:59:36;;;;;;;;;;;16.90;73.70;;;;;;4944988;29;19911;-96
